Time;durP1;ratioP1;P1;durP2;ratioP2;P2;SDS_P1;SDS_P2;PMS_P1;PMS_P2;Temp;Humidity;BMP_temperature;BMP_pressure;BME280_temperature;BME280_humidity;BME280_pressure;Samples;Min_cycle;Max_cycle;Signal;HPM_P1;HPM_P2
2020/12/23 00:04:30;;;;;;;20.15;7.10;;;;;;;5.99;97.43;98968.14;4239931;82;21213;-86
2020/12/23 00:10:32;;;;;;;15.88;6.00;;;;;;;6.01;97.84;98969.16;4234306;82;21159;-87
2020/12/23 00:16:33;;;;;;;23.32;7.72;;;;;;;6.10;97.80;98967.07;4189394;82;21208;-86
2020/12/23 00:22:36;;;;;;;20.32;7.62;;;;;;;6.11;97.35;98965.37;4190358;84;21194;-86
2020/12/23 00:28:38;;;;;;;13.55;6.20;;;;;;;6.07;97.39;98965.84;4186964;84;21187;-86
2020/12/23 00:34:39;;;;;;;17.20;8.00;;;;;;;6.06;97.25;98980.55;4191420;84;21178;-87
2020/12/23 00:40:41;;;;;;;15.43;7.83;;;;;;;6.08;97.46;98990.52;4182571;84;21302;-86
2020/12/23 00:46:43;;;;;;;58.48;28.12;;;;;;;6.11;97.35;99002.06;4195530;84;21206;-86
2020/12/23 00:52:44;;;;;;;63.87;31.77;;;;;;;6.05;97.23;99012.95;4192895;84;21188;-87
2020/12/23 00:58:46;;;;;;;72.25;37.13;;;;;;;6.10;97.30;99018.70;4186373;84;21366;-87
2020/12/23 01:04:48;;;;;;;67.62;36.65;;;;;;;6.02;96.81;99025.87;4180731;84;21172;-87
2020/12/23 01:10:49;;;;;;;87.35;43.20;;;;;;;6.06;97.29;99015.11;4185649;84;21212;-86
2020/12/23 01:16:51;;;;;;;69.58;33.35;;;;;;;6.03;97.03;99017.13;4209161;83;21141;-86
2020/12/23 01:22:52;;;;;;;62.10;32.73;;;;;;;6.01;97.01;99020.19;4192442;83;21618;-86
2020/12/23 01:28:54;;;;;;;46.60;23.77;;;;;;;6.00;96.92;99017.27;4204890;83;21198;-86
2020/12/23 01:34:55;;;;;;;56.50;29.30;;;;;;;6.04;97.11;99015.45;4191783;83;21653;-87
2020/12/23 01:41:03;;;;;;;40.10;22.62;;;;;;;6.10;97.11;99001.84;4201321;83;21192;-87
2020/12/23 01:47:16;;;;;;;26.93;13.03;;;;;;;6.14;97.07;98996.48;4202990;83;21226;-86
2020/12/23 01:53:18;;;;;;;11.12;6.22;;;;;;;6.10;97.07;98988.26;4198789;83;21547;-87
2020/12/23 01:59:19;;;;;;;24.12;11.63;;;;;;;6.17;96.91;98993.11;4203461;83;21166;-87
2020/12/23 02:05:21;;;;;;;18.27;8.05;;;;;;;6.07;96.81;98985.43;4151136;84;21557;-86
2020/12/23 02:11:22;;;;;;;32.33;15.75;;;;;;;6.08;96.94;98985.64;4163566;84;21172;-86
2020/12/23 02:17:29;;;;;;;30.05;14.80;;;;;;;5.99;96.44;98999.39;4194865;83;21181;-87
2020/12/23 02:23:31;;;;;;;31.10;16.43;;;;;;;5.93;96.62;99010.84;4152534;84;21649;-87
2020/12/23 02:29:32;;;;;;;36.80;19.48;;;;;;;5.92;96.84;99003.24;4150885;84;21224;-86
2020/12/23 02:35:34;;;;;;;29.82;15.95;;;;;;;5.91;96.91;99003.59;4139687;84;21168;-86
2020/12/23 02:41:35;;;;;;;37.65;22.00;;;;;;;5.74;96.51;99004.63;4147078;84;21705;-87
2020/12/23 02:47:37;;;;;;;44.25;25.25;;;;;;;5.73;96.76;99000.31;4154102;84;21211;-86
2020/12/23 02:53:38;;;;;;;57.62;32.17;;;;;;;5.70;96.98;99011.09;4283802;82;21602;-87
2020/12/23 02:59:40;;;;;;;44.77;24.27;;;;;;;5.70;97.21;99000.23;4277440;82;21164;-86
2020/12/23 03:05:41;;;;;;;41.92;24.07;;;;;;;5.75;96.98;98993.97;4282305;81;21322;-87
2020/12/23 03:11:43;;;;;;;51.85;28.67;;;;;;;5.80;97.16;99003.80;4154546;84;21216;-87
2020/12/23 03:17:44;;;;;;;52.55;30.30;;;;;;;5.76;96.99;98988.76;4185550;83;21480;-86
2020/12/23 03:23:46;;;;;;;59.73;31.73;;;;;;;5.83;97.29;98997.72;4199063;83;21628;-86
2020/12/23 03:29:48;;;;;;;42.73;24.00;;;;;;;5.81;97.36;99002.11;4216177;82;21194;-86
2020/12/23 03:35:49;;;;;;;49.93;27.98;;;;;;;5.82;96.95;99009.73;4210987;83;21192;-87
2020/12/23 03:41:51;;;;;;;60.20;32.00;;;;;;;5.85;96.93;99012.56;4206681;83;21318;-87
2020/12/23 03:47:53;;;;;;;62.78;33.60;;;;;;;5.68;96.99;99031.00;4218392;82;21213;-87
2020/12/23 03:53:54;;;;;;;201.55;95.90;;;;;;;5.56;97.19;99023.64;4220349;82;21657;-87
2020/12/23 03:59:56;;;;;;;187.22;87.82;;;;;;;5.68;97.73;99007.91;4229278;82;21217;-86
2020/12/23 04:05:58;;;;;;;49.53;29.02;;;;;;;5.81;97.43;98994.55;4228610;82;21594;-87
2020/12/23 04:12:00;;;;;;;53.98;29.63;;;;;;;5.92;97.52;98990.25;4224885;82;21200;-87
2020/12/23 04:18:01;;;;;;;49.67;28.50;;;;;;;6.06;97.38;99006.96;4220279;82;21193;-87
2020/12/23 04:24:03;;;;;;;44.00;26.35;;;;;;;6.06;97.28;99015.11;4226330;82;21270;-87
2020/12/23 04:30:07;;;;;;;53.33;28.70;;;;;;;5.91;97.17;99008.47;4223832;82;21204;-87
2020/12/23 04:36:08;;;;;;;47.08;26.68;;;;;;;5.91;97.36;99007.11;4223367;82;21171;-86
2020/12/23 04:42:10;;;;;;;66.37;34.48;;;;;;;5.96;97.46;99008.78;4218119;82;21206;-87
2020/12/23 04:48:14;;;;;;;48.35;26.12;;;;;;;5.96;97.22;99005.52;4221328;82;21181;-86
2020/12/23 04:54:16;;;;;;;49.33;27.10;;;;;;;5.77;96.57;99027.03;4236749;82;21176;-88
2020/12/23 05:00:19;;;;;;;60.38;32.05;;;;;;;5.68;96.94;99025.57;4237734;82;21204;-87
2020/12/23 05:06:22;;;;;;;61.05;32.30;;;;;;;5.57;97.38;99013.03;4212799;83;21645;-87
2020/12/23 05:12:24;;;;;;;50.50;29.90;;;;;;;5.63;97.59;99008.94;4212287;83;21190;-86
2020/12/23 05:18:37;;;;;;;63.13;31.62;;;;;;;5.67;97.26;99017.20;4180672;83;21162;-87
2020/12/23 05:24:39;;;;;;;61.25;32.80;;;;;;;5.74;97.53;99014.13;4109696;84;21329;-87
2020/12/23 05:30:40;;;;;;;57.93;31.00;;;;;;;5.69;97.15;99008.93;4152383;84;21600;-87
2020/12/23 05:36:42;;;;;;;61.23;33.38;;;;;;;5.76;97.43;99017.86;4177563;83;21635;-87
2020/12/23 05:42:44;;;;;;;68.65;37.60;;;;;;;5.77;97.33;99005.86;4182829;83;21458;-87
2020/12/23 05:48:46;;;;;;;78.87;42.10;;;;;;;5.91;97.72;99008.47;4171246;83;21187;-89
2020/12/23 05:54:53;;;;;;;64.72;33.85;;;;;;;5.95;97.66;99015.37;4191837;83;21315;-87
2020/12/23 06:01:01;;;;;;;52.55;30.35;;;;;;;5.91;97.18;99016.61;4188377;83;21182;-88
2020/12/23 06:07:06;;;;;;;55.52;33.38;;;;;;;5.86;97.23;99007.89;4188929;83;21351;-87
2020/12/23 06:13:12;;;;;;;51.15;29.18;;;;;;;5.84;97.45;99002.81;4185422;83;21198;-87
2020/12/23 06:19:39;;;;;;;55.03;29.07;;;;;;;5.94;97.73;98992.03;4170265;83;21202;-87
2020/12/23 06:25:44;;;;;;;46.63;24.73;;;;;;;5.94;97.16;99016.48;4202136;83;21267;-87
2020/12/23 06:31:53;;;;;;;43.70;24.98;;;;;;;5.92;97.48;98991.60;4200030;83;21190;-86
2020/12/23 06:37:55;;;;;;;42.80;24.63;;;;;;;5.93;97.92;98999.97;4231200;82;21327;-86
2020/12/23 06:43:58;;;;;;;34.63;22.02;;;;;;;5.90;97.42;99010.17;4223343;82;21188;-87
2020/12/23 06:50:29;;;;;;;36.33;23.42;;;;;;;6.05;97.94;99015.67;4229058;82;21260;-86
2020/12/23 06:56:45;;;;;;;34.73;21.77;;;;;;;5.98;97.25;99020.88;4169718;84;21479;-87
2020/12/23 07:02:53;;;;;;;34.95;22.40;;;;;;;5.97;97.75;99016.59;4224412;82;21323;-86
2020/12/23 07:08:55;;;;;;;36.28;21.87;;;;;;;6.04;97.87;99016.81;4196022;84;21198;-86
2020/12/23 07:15:17;;;;;;;28.00;19.40;;;;;;;6.03;97.62;99023.37;4212233;83;21199;-86
2020/12/23 07:21:22;;;;;;;30.52;19.90;;;;;;;6.14;97.68;99046.77;4198177;84;21178;-86
2020/12/23 07:27:26;;;;;;;33.02;22.98;;;;;;;6.08;97.74;99046.79;4214941;83;21141;-86
2020/12/23 07:33:29;;;;;;;38.35;23.22;;;;;;;6.26;98.13;99043.45;4181399;83;21182;-85
2020/12/23 07:39:31;;;;;;;35.83;21.20;;;;;;;6.23;97.56;99049.58;4198747;83;21150;-85
2020/12/23 07:45:35;;;;;;;33.40;21.12;;;;;;;6.17;97.58;99042.03;4187914;84;21165;-85
2020/12/23 07:51:38;;;;;;;29.65;20.80;;;;;;;6.18;97.76;99040.33;4244706;82;21189;-86
2020/12/23 07:57:39;;;;;;;32.42;19.98;;;;;;;6.23;97.96;99033.27;4229790;82;21165;-85
2020/12/23 08:03:41;;;;;;;37.55;24.52;;;;;;;6.27;97.65;99032.02;4319982;81;21209;-85
2020/12/23 08:09:42;;;;;;;40.98;25.70;;;;;;;6.33;98.00;99040.94;4319110;81;21323;-85
2020/12/23 08:15:44;;;;;;;36.00;24.80;;;;;;;6.52;98.41;99034.86;4319270;81;21633;-85
2020/12/23 08:21:45;;;;;;;38.53;25.70;;;;;;;6.68;98.28;99034.89;4293147;81;21577;-85
2020/12/23 08:27:50;;;;;;;38.90;26.05;;;;;;;6.77;98.08;99043.12;4308786;82;21120;-88
2020/12/23 08:33:55;;;;;;;46.40;30.25;;;;;;;6.74;97.48;99044.38;4319069;82;21156;-89
2020/12/23 08:39:59;;;;;;;34.90;24.57;;;;;;;6.66;98.16;99043.41;4235438;84;21200;-90
2020/12/23 08:46:00;;;;;;;37.80;24.65;;;;;;;6.76;97.89;99055.71;4246094;84;21180;-88
2020/12/23 08:52:08;;;;;;;50.35;30.55;;;;;;;6.90;98.28;99057.45;4245685;84;21155;-89
2020/12/23 08:58:20;;;;;;;48.02;30.70;;;;;;;6.94;97.89;99048.83;4604968;76;22923;-84
2020/12/23 09:04:27;;;;;;;50.20;31.07;;;;;;;6.86;97.90;99044.33;4497042;78;21108;-84
2020/12/23 09:10:29;;;;;;;52.53;33.23;;;;;;;6.76;98.00;99038.83;4493710;78;21149;-85
2020/12/23 09:16:31;;;;;;;29.02;19.23;;;;;;;6.81;98.60;99026.89;4492595;79;21597;-85
2020/12/23 09:22:39;;;;;;;54.95;30.88;;;;;;;6.88;98.76;99027.86;4493094;78;21121;-84
2020/12/23 09:28:43;;;;;;;44.05;25.05;;;;;;;6.97;98.61;99038.01;4478600;78;21160;-84
2020/12/23 09:34:44;;;;;;;32.42;17.55;;;;;;;7.14;98.86;99019.97;4493558;78;21148;-84
2020/12/23 09:40:54;;;;;;;34.00;22.35;;;;;;;7.31;98.99;99005.99;4492099;78;21187;-84
2020/12/23 09:46:56;;;;;;;33.80;21.52;;;;;;;7.45;98.87;99009.08;4488213;78;21194;-85
2020/12/23 09:52:57;;;;;;;33.80;22.55;;;;;;;7.54;98.92;99009.67;4494951;78;21717;-85
2020/12/23 09:58:59;;;;;;;45.10;30.57;;;;;;;7.61;98.83;98994.84;4388736;80;21165;-84
2020/12/23 10:05:00;;;;;;;44.53;29.30;;;;;;;7.63;98.37;98987.67;4364436;80;21769;-85
2020/12/23 10:11:02;;;;;;;42.25;26.33;;;;;;;7.59;98.54;98980.80;4361925;81;21619;-85
2020/12/23 10:17:03;;;;;;;45.23;27.93;;;;;;;7.58;98.23;98975.12;4346642;81;21163;-84
2020/12/23 10:23:05;;;;;;;38.60;26.30;;;;;;;7.63;98.61;98988.47;4360270;80;21210;-85
2020/12/23 10:29:08;;;;;;;46.00;31.10;;;;;;;7.78;98.52;98987.63;4356306;81;21197;-84
2020/12/23 10:35:09;;;;;;;47.15;29.80;;;;;;;7.86;98.55;98986.64;4356960;80;21710;-85
2020/12/23 10:41:26;;;;;;;38.88;27.37;;;;;;;7.95;98.79;98979.63;4354842;81;21159;-85
2020/12/23 10:47:28;;;;;;;47.20;29.83;;;;;;;8.12;98.70;98969.66;4352169;81;21142;-85
2020/12/23 10:53:31;;;;;;;48.75;30.27;;;;;;;8.09;98.42;98966.29;4353080;80;21194;-85
2020/12/23 10:59:33;;;;;;;43.90;28.17;;;;;;;8.14;98.54;98976.12;4345382;80;21162;-85
2020/12/23 11:05:38;;;;;;;44.35;26.97;;;;;;;8.21;98.27;98969.42;4348480;80;21628;-85
2020/12/23 11:11:39;;;;;;;42.35;27.98;;;;;;;8.08;98.16;98958.47;4355876;80;21202;-85
2020/12/23 11:17:54;;;;;;;28.20;18.65;;;;;;;8.17;98.58;98961.77;4347392;80;21133;-85
2020/12/23 11:23:56;;;;;;;26.90;18.37;;;;;;;8.11;98.45;98971.38;4345162;81;21161;-85
2020/12/23 11:29:57;;;;;;;30.43;19.77;;;;;;;8.13;98.62;98953.50;4347085;80;21263;-85
2020/12/23 11:35:59;;;;;;;32.30;20.77;;;;;;;8.28;98.87;98954.05;4345042;80;21178;-85
2020/12/23 11:42:00;;;;;;;30.72;18.70;;;;;;;8.38;98.93;98955.41;4351204;80;21750;-85
2020/12/23 11:48:02;;;;;;;29.48;18.10;;;;;;;8.46;98.73;98955.16;4344651;80;21165;-85
2020/12/23 11:54:03;;;;;;;30.60;18.05;;;;;;;8.53;98.71;98943.59;4347399;80;21474;-84
2020/12/23 12:00:06;;;;;;;22.30;15.72;;;;;;;8.52;98.33;98923.70;4340481;80;21149;-85
2020/12/23 12:06:10;;;;;;;26.25;17.52;;;;;;;8.53;98.62;98918.47;4346805;80;21662;-85
2020/12/23 12:12:11;;;;;;;22.20;15.55;;;;;;;8.62;98.81;98934.59;4345452;80;21176;-85
2020/12/23 12:18:13;;;;;;;15.70;11.00;;;;;;;8.67;98.57;98931.56;4349752;80;21162;-86
2020/12/23 12:24:14;;;;;;;14.18;9.53;;;;;;;8.61;98.29;98925.63;4349141;80;21163;-85
2020/12/23 12:30:16;;;;;;;14.38;9.68;;;;;;;8.58;98.49;98920.88;4347799;80;21328;-86
2020/12/23 12:36:17;;;;;;;13.45;10.43;;;;;;;8.60;98.54;98914.48;4343214;80;21125;-85
2020/12/23 12:42:19;;;;;;;12.80;9.30;;;;;;;8.67;98.47;98911.09;4348530;80;21143;-85
2020/12/23 12:48:21;;;;;;;15.35;9.35;;;;;;;8.63;98.37;98913.76;4346694;80;21193;-85
2020/12/23 12:54:22;;;;;;;14.15;9.15;;;;;;;8.51;98.29;98916.67;4344808;80;21181;-85
2020/12/23 13:00:24;;;;;;;13.93;9.65;;;;;;;8.51;98.50;98930.88;4361716;81;21152;-85
2020/12/23 13:06:25;;;;;;;20.25;9.95;;;;;;;8.58;98.39;98931.02;4362335;80;21176;-85
2020/12/23 13:12:29;;;;;;;16.85;10.25;;;;;;;8.53;98.30;98940.86;4362607;80;21109;-85
2020/12/23 13:18:34;;;;;;;14.18;9.98;;;;;;;8.60;98.56;98944.50;4360091;80;21910;-85
2020/12/23 13:24:36;;;;;;;17.50;11.50;;;;;;;8.57;98.36;98960.23;4362637;80;21117;-85
2020/12/23 13:30:38;;;;;;;29.48;18.73;;;;;;;8.59;98.72;98959.88;4314090;81;21183;-85
2020/12/23 13:36:40;;;;;;;38.08;21.55;;;;;;;8.62;98.56;98968.13;4310539;82;21186;-85
2020/12/23 13:42:42;;;;;;;24.02;16.97;;;;;;;8.72;98.72;98968.88;4311162;81;21142;-85
2020/12/23 13:48:43;;;;;;;37.40;26.33;;;;;;;8.74;98.75;98972.05;4325934;81;21198;-85
2020/12/23 13:54:44;;;;;;;52.93;31.02;;;;;;;8.69;98.12;98964.75;4305195;81;21472;-85
2020/12/23 14:00:50;;;;;;;44.33;27.70;;;;;;;8.42;98.10;98961.70;4333029;82;21150;-85
2020/12/23 14:06:54;;;;;;;60.28;36.10;;;;;;;8.33;98.53;98952.36;4337738;80;21594;-85
2020/12/23 14:12:55;;;;;;;40.58;26.02;;;;;;;8.46;98.96;98943.45;4340253;81;21169;-85
2020/12/23 14:18:56;;;;;;;43.08;30.10;;;;;;;8.39;98.46;98948.22;4339109;80;21147;-85
2020/12/23 14:24:58;;;;;;;52.55;33.98;;;;;;;8.36;98.10;98950.31;4336868;80;21764;-86
2020/12/23 14:31:06;;;;;;;41.83;28.50;;;;;;;8.34;98.17;98949.08;4346267;80;21387;-86
2020/12/23 14:37:08;;;;;;;43.38;29.57;;;;;;;8.29;97.86;98950.16;4349552;81;21137;-86
2020/12/23 14:43:10;;;;;;;61.13;38.25;;;;;;;8.10;97.63;98946.64;4349415;81;21179;-85
2020/12/23 14:49:11;;;;;;;44.20;27.35;;;;;;;7.99;97.91;98948.56;4349128;80;21604;-86
2020/12/23 14:55:13;;;;;;;55.58;33.88;;;;;;;7.85;97.90;98940.66;4348030;80;21775;-86
2020/12/23 15:01:15;;;;;;;50.98;33.83;;;;;;;7.85;98.79;98932.48;4335587;80;21169;-85
2020/12/23 15:07:18;;;;;;;57.45;37.67;;;;;;;7.92;98.46;98929.92;4344385;80;21171;-85
2020/12/23 15:13:19;;;;;;;53.95;34.40;;;;;;;7.82;97.83;98929.12;4332025;80;21181;-86
2020/12/23 15:19:21;;;;;;;47.27;33.55;;;;;;;7.76;98.29;98932.72;4339242;80;21662;-86
2020/12/23 15:25:23;;;;;;;41.15;29.63;;;;;;;7.70;97.88;98939.59;4321268;80;21328;-85
2020/12/23 15:31:24;;;;;;;45.45;32.28;;;;;;;7.57;97.88;98935.41;4326866;80;21166;-86
2020/12/23 15:37:26;;;;;;;41.53;30.17;;;;;;;7.48;97.95;98933.47;4333304;80;21175;-85
2020/12/23 15:43:27;;;;;;;45.85;32.93;;;;;;;7.48;98.19;98926.66;4338087;80;21631;-90
2020/12/23 15:49:32;;;;;;;55.98;37.60;;;;;;;7.53;98.16;98922.27;4333526;80;21197;-89
2020/12/23 15:55:34;;;;;;;74.05;45.58;;;;;;;7.44;97.91;98918.97;4319396;80;21165;-89
2020/12/23 16:01:35;;;;;;;87.33;53.78;;;;;;;7.32;97.87;98919.66;4332888;82;21159;-85
2020/12/23 16:07:36;;;;;;;68.10;48.17;;;;;;;7.20;97.80;98909.69;4339759;80;21599;-85
2020/12/23 16:13:38;;;;;;;86.75;55.00;;;;;;;7.13;97.84;98919.59;4333296;80;21533;-86
2020/12/23 16:19:40;;;;;;;106.37;60.17;;;;;;;7.13;97.98;98917.67;4337992;80;21198;-85
2020/12/23 16:25:42;;;;;;;86.90;54.13;;;;;;;7.09;98.03;98906.49;4332076;81;21289;-86
2020/12/23 16:31:44;;;;;;;79.15;52.43;;;;;;;7.10;97.94;98906.14;4334096;80;21147;-85
2020/12/23 16:37:45;;;;;;;79.82;52.58;;;;;;;7.04;98.14;98897.23;4334924;80;21162;-85
2020/12/23 16:43:47;;;;;;;84.07;53.15;;;;;;;7.08;98.39;98890.72;4326742;81;21162;-85
2020/12/23 16:49:48;;;;;;;106.85;73.30;;;;;;;7.14;98.48;98892.02;4338808;80;21137;-85
2020/12/23 16:55:50;;;;;;;100.33;68.00;;;;;;;7.07;98.21;98864.66;4334597;82;21138;-86
2020/12/23 17:02:01;;;;;;;82.37;56.58;;;;;;;6.99;98.31;98849.30;4344995;80;21183;-86
2020/12/23 17:08:02;;;;;;;90.95;60.78;;;;;;;6.86;97.40;98842.39;4334255;82;21151;-86
2020/12/23 17:14:04;;;;;;;83.85;52.55;;;;;;;6.67;97.55;98846.98;4334458;80;21218;-85
2020/12/23 17:20:05;;;;;;;90.87;57.67;;;;;;;6.62;98.16;98854.05;4329677;80;21638;-86
2020/12/23 17:26:07;;;;;;;84.70;50.25;;;;;;;6.64;98.04;98854.50;4339876;80;21162;-85
2020/12/23 17:32:09;;;;;;;76.97;45.43;;;;;;;6.71;98.10;98843.77;4327012;80;21474;-86
2020/12/23 17:38:11;;;;;;;69.95;44.20;;;;;;;6.69;98.44;98836.55;4322834;80;21191;-87
2020/12/23 17:44:14;;;;;;;84.47;48.85;;;;;;;6.68;98.05;98847.20;4326443;80;21170;-86
2020/12/23 17:51:02;;;;;;;66.67;45.40;;;;;;;6.60;97.72;98841.37;4318111;80;21708;-85
2020/12/23 17:57:03;;;;;;;;;;;;;;;6.51;97.56;98830.69;4300767;80;21696;-86
2020/12/23 18:03:05;;;;;;;97.47;57.05;;;;;;;6.30;97.23;98833.66;4393310;79;20223;-85
2020/12/23 18:09:15;;;;;;;99.50;57.00;;;;;;;6.14;97.36;98823.91;4390988;79;21357;-85
2020/12/23 18:15:17;;;;;;;105.10;50.85;;;;;;;6.03;97.17;98829.07;4391886;79;21409;-86
2020/12/23 18:21:18;;;;;;;98.78;55.40;;;;;;;5.85;96.77;98820.23;4333096;81;21160;-86
2020/12/23 18:27:20;;;;;;;93.92;55.38;;;;;;;5.82;97.61;98820.94;4309183;81;21303;-85
2020/12/23 18:33:22;;;;;;;119.47;63.92;;;;;;;5.79;97.28;98818.33;4272830;79;10000018;-86
2020/12/23 18:39:25;;;;;;;113.92;64.35;;;;;;;5.76;97.55;98812.79;4320399;81;21243;-86
2020/12/23 18:45:27;;;;;;;87.20;50.90;;;;;;;5.79;97.87;98812.09;4312511;81;21168;-86
2020/12/23 18:51:28;;;;;;;104.55;60.63;;;;;;;5.86;97.95;98806.86;4310332;81;21198;-86
2020/12/23 18:57:30;;;;;;;166.18;100.33;;;;;;;5.86;97.76;98804.15;4379672;79;21669;-86
2020/12/23 19:03:31;;;;;;;83.15;50.20;;;;;;;5.80;97.43;98805.52;4358784;80;21199;-86
2020/12/23 19:09:33;;;;;;;99.90;55.80;;;;;;;5.77;97.39;98792.62;4360866;80;21176;-86
2020/12/23 19:15:37;;;;;;;118.50;56.13;;;;;;;5.74;97.69;98782.47;4359558;80;22209;-85
2020/12/23 19:21:41;;;;;;;90.85;49.53;;;;;;;5.86;98.16;98770.19;4307818;81;21158;-85
2020/12/23 19:27:48;;;;;;;93.35;48.92;;;;;;;5.95;98.45;98757.25;4310109;81;21182;-86
2020/12/23 19:33:50;;;;;;;116.77;61.50;;;;;;;6.04;98.25;98747.80;4190958;80;10000109;-86
2020/12/23 19:39:53;;;;;;;121.95;64.00;;;;;;;6.11;98.36;98730.28;4308469;81;21708;-85
2020/12/23 19:45:54;;;;;;;121.13;63.87;;;;;;;6.21;98.54;98726.25;4306452;81;21626;-86
2020/12/23 19:51:56;;;;;;;112.40;64.05;;;;;;;6.26;98.69;98718.59;4319523;81;21182;-86
2020/12/23 19:57:58;;;;;;;106.10;62.98;;;;;;;6.37;98.58;98707.99;4329667;80;21158;-86
2020/12/23 20:04:00;;;;;;;101.80;59.23;;;;;;;6.33;98.44;98706.55;4302437;81;21375;-86
2020/12/23 20:10:05;;;;;;;98.33;58.10;;;;;;;6.29;98.37;98711.13;4306064;81;21371;-86
2020/12/23 20:16:08;;;;;;;106.03;63.50;;;;;;;6.29;98.02;98710.33;4385592;80;21697;-85
2020/12/23 20:22:16;;;;;;;102.05;59.42;;;;;;;6.26;98.62;98691.41;4324448;80;21596;-85
2020/12/23 20:28:18;;;;;;;87.10;54.08;;;;;;;6.20;97.67;98696.91;4344056;80;22283;-86
2020/12/23 20:34:20;;;;;;;102.32;60.43;;;;;;;6.14;97.94;98665.72;4342272;80;21158;-86
2020/12/23 20:40:22;;;;;;;119.30;66.55;;;;;;;6.16;98.05;98650.41;4340457;80;21606;-85
2020/12/23 20:46:24;;;;;;;101.65;60.05;;;;;;;6.19;98.40;98647.78;4341209;80;21163;-85
2020/12/23 20:52:25;;;;;;;96.78;55.48;;;;;;;6.09;97.89;98652.39;4348610;80;21309;-85
2020/12/23 20:58:27;;;;;;;93.20;55.73;;;;;;;6.15;98.12;98646.89;4363672;80;21186;-85
2020/12/23 21:04:29;;;;;;;109.25;59.45;;;;;;;5.98;97.20;98647.28;4387054;80;21126;-86
2020/12/23 21:10:30;;;;;;;105.67;58.75;;;;;;;5.81;97.21;98646.27;4386312;80;21884;-86
2020/12/23 21:16:32;;;;;;;103.58;54.58;;;;;;;5.79;97.57;98630.91;4386327;80;21344;-86
2020/12/23 21:22:34;;;;;;;129.12;60.00;;;;;;;5.69;97.37;98620.56;4386182;80;21755;-86
2020/12/23 21:28:35;;;;;;;99.47;55.80;;;;;;;5.64;97.77;98599.66;4385967;80;21170;-85
2020/12/23 21:34:36;;;;;;;82.53;49.90;;;;;;;5.63;97.87;98577.73;4384880;80;21639;-85
2020/12/23 21:40:38;;;;;;;102.38;56.55;;;;;;;5.55;97.30;98572.70;4386173;80;21174;-85
2020/12/23 21:46:39;;;;;;;85.28;49.05;;;;;;;5.52;97.43;98561.75;4389946;80;21193;-86
2020/12/23 21:52:41;;;;;;;76.95;49.55;;;;;;;5.41;97.37;98555.28;4377591;80;21145;-85
2020/12/23 21:58:42;;;;;;;87.12;48.48;;;;;;;5.34;97.31;98550.46;4385824;80;21177;-85
2020/12/23 22:04:44;;;;;;;78.35;49.80;;;;;;;5.27;97.56;98550.86;4387915;80;21193;-86
2020/12/23 22:10:45;;;;;;;79.92;45.85;;;;;;;5.23;97.69;98519.56;4386657;80;21202;-86
2020/12/23 22:16:47;;;;;;;78.90;46.77;;;;;;;5.23;97.55;98501.16;4385344;80;21173;-85
2020/12/23 22:22:49;;;;;;;80.87;47.48;;;;;;;5.18;97.55;98492.72;4386505;80;21140;-86
2020/12/23 22:28:52;;;;;;;73.75;42.98;;;;;;;5.17;97.68;98486.28;4386026;80;21598;-85
2020/12/23 22:34:53;;;;;;;76.75;46.42;;;;;;;5.16;97.69;98475.20;4384897;80;21180;-85
2020/12/23 22:40:55;;;;;;;77.17;44.13;;;;;;;5.13;97.66;98476.70;4381138;80;21314;-86
2020/12/23 22:46:56;;;;;;;71.75;41.88;;;;;;;5.18;98.07;98471.02;4386748;80;21874;-86
2020/12/23 22:52:59;;;;;;;70.87;39.27;;;;;;;5.19;97.94;98461.72;4385116;80;21156;-87
2020/12/23 22:59:00;;;;;;;74.97;42.23;;;;;;;5.20;97.89;98455.14;4384949;80;21305;-86
2020/12/23 23:05:02;;;;;;;72.32;40.35;;;;;;;5.26;98.05;98453.73;4387690;80;21565;-85
2020/12/23 23:11:06;;;;;;;68.40;39.03;;;;;;;5.23;97.90;98458.50;4385310;80;21145;-85
2020/12/23 23:17:07;;;;;;;66.80;37.95;;;;;;;5.27;97.81;98446.38;4387995;80;21113;-85
2020/12/23 23:23:10;;;;;;;66.30;39.13;;;;;;;5.37;98.18;98445.85;4385657;80;21128;-85
2020/12/23 23:29:12;;;;;;;63.70;37.65;;;;;;;5.40;98.02;98441.07;4386454;80;21116;-85
2020/12/23 23:35:14;;;;;;;64.60;35.95;;;;;;;5.35;97.65;98418.27;4386412;80;21401;-85
2020/12/23 23:41:16;;;;;;;66.42;39.00;;;;;;;5.37;97.94;98412.69;4387284;80;21168;-85
2020/12/23 23:47:18;;;;;;;63.73;37.40;;;;;;;5.38;97.82;98395.28;4387196;80;21691;-85
2020/12/23 23:53:20;;;;;;;60.17;35.40;;;;;;;5.37;97.92;98386.14;4385874;80;21181;-85
2020/12/23 23:59:21;;;;;;;58.30;34.20;;;;;;;5.34;97.79;98374.64;4383657;80;21168;-86
